Time;durP1;ratioP1;P1;durP2;ratioP2;P2;SDS_P1;SDS_P2;PMS_P1;PMS_P2;Temp;Humidity;BMP_temperature;BMP_pressure;BME280_temperature;BME280_humidity;BME280_pressure;Samples;Min_cycle;Max_cycle;Signal;HPM_P1;HPM_P2
2021/12/01 00:01:06;;;;;;;3.63;0.80;;;;;;;7.32;100.00;100034.31;6157424;23;20012;-91
2021/12/01 00:03:32;;;;;;;5.13;1.20;;;;;;;7.27;100.00;100033.00;6157565;23;20001;-87
2021/12/01 00:05:57;;;;;;;11.68;1.90;;;;;;;7.23;100.00;100042.38;6133416;23;20008;-90
2021/12/01 00:08:23;;;;;;;14.75;2.50;;;;;;;7.13;100.00;100036.38;6132686;23;20092;-89
2021/12/01 00:10:49;;;;;;;12.38;1.42;;;;;;;6.97;100.00;100029.25;6157403;23;20459;-86
2021/12/01 00:13:18;;;;;;;3.30;1.10;;;;;;;7.06;100.00;100062.13;6156914;23;20468;-91
2021/12/01 00:15:46;;;;;;;2.88;1.00;;;;;;;6.97;100.00;100058.63;6157408;23;20016;-89
2021/12/01 00:18:12;;;;;;;5.20;1.00;;;;;;;6.92;100.00;100050.28;6181838;23;20056;-88
2021/12/01 00:20:38;;;;;;;3.10;0.80;;;;;;;6.97;100.00;100069.34;6132419;23;20389;-91
2021/12/01 00:23:04;;;;;;;5.85;1.50;;;;;;;6.99;100.00;100066.50;6108072;23;20005;-89
2021/12/01 00:25:32;;;;;;;10.98;1.85;;;;;;;6.94;100.00;100063.50;6108452;23;20008;-88
2021/12/01 00:28:00;;;;;;;2.72;1.00;;;;;;;6.98;100.00;100060.31;6133406;23;20361;-88
2021/12/01 00:30:26;;;;;;;6.63;1.63;;;;;;;6.93;100.00;100060.00;6157454;23;20017;-86
2021/12/01 00:32:53;;;;;;;6.10;1.40;;;;;;;6.99;100.00;100069.19;6157070;23;20080;-89
2021/12/01 00:35:21;;;;;;;6.13;1.02;;;;;;;6.90;100.00;100054.97;6132441;23;20459;-88
2021/12/01 00:37:47;;;;;;;2.63;1.15;;;;;;;6.79;100.00;100058.00;6132108;23;20441;-86
2021/12/01 00:40:13;;;;;;;2.13;0.88;;;;;;;6.76;100.00;100056.50;6181302;23;20078;-90
2021/12/01 00:42:40;;;;;;;2.30;0.80;;;;;;;6.81;100.00;100064.84;6131335;23;20005;-89
2021/12/01 00:45:11;;;;;;;2.05;0.85;;;;;;;6.82;100.00;100071.00;6156795;23;20001;-90
2021/12/01 00:47:44;;;;;;;1.98;0.82;;;;;;;6.79;100.00;100068.69;6156580;23;20012;-89
2021/12/01 00:50:15;;;;;;;11.23;1.58;;;;;;;6.67;100.00;100051.31;6183131;23;20018;-89
2021/12/01 00:52:41;;;;;;;7.93;1.27;;;;;;;6.65;100.00;100048.00;6157011;23;20009;-88
2021/12/01 00:55:08;;;;;;;4.40;1.30;;;;;;;6.54;100.00;100046.50;6156600;23;20016;-90
2021/12/01 00:57:34;;;;;;;16.23;2.30;;;;;;;6.60;100.00;100062.69;6132156;23;20069;-87
2021/12/01 01:00:03;;;;;;;9.77;2.50;;;;;;;6.51;100.00;100053.00;6131607;23;20013;-88
2021/12/01 01:02:28;;;;;;;7.65;1.58;;;;;;;6.50;100.00;100064.69;6157600;23;20032;-88
2021/12/01 01:04:54;;;;;;;12.20;2.70;;;;;;;6.48;100.00;100061.34;6156029;23;20574;-87
2021/12/01 01:07:20;;;;;;;9.65;1.77;;;;;;;6.39;100.00;100049.81;6183311;23;20333;-88
2021/12/01 01:09:45;;;;;;;6.38;1.95;;;;;;;6.46;100.00;100071.38;6156365;23;20032;-88
2021/12/01 01:17:41;;;;;;;8.73;1.13;;;;;;;6.54;100.00;100073.22;6136389;23;20453;-87
2021/12/01 01:20:12;;;;;;;4.78;1.20;;;;;;;6.54;100.00;100066.03;6132343;23;20008;-89
2021/12/01 01:22:39;;;;;;;9.90;2.35;;;;;;;6.58;100.00;100083.38;6107946;23;20325;-87
2021/12/01 01:25:07;;;;;;;10.48;3.25;;;;;;;6.60;100.00;100084.06;6131957;23;20341;-87
2021/12/01 01:27:33;;;;;;;7.75;1.40;;;;;;;6.61;100.00;100079.53;6156307;23;20113;-88
2021/12/01 01:29:59;;;;;;;11.45;2.25;;;;;;;6.48;100.00;100064.00;6107928;23;20013;-87
2021/12/01 01:32:24;;;;;;;7.57;1.05;;;;;;;6.53;100.00;100076.88;6131530;23;20017;-86
2021/12/01 01:34:50;;;;;;;6.57;1.83;;;;;;;6.46;100.00;100067.88;6182763;23;20429;-87
2021/12/01 01:37:16;;;;;;;7.60;1.00;;;;;;;6.33;100.00;100071.03;6131849;23;20389;-89
2021/12/01 01:39:41;;;;;;;4.22;1.40;;;;;;;6.24;100.00;100072.00;6131876;23;20087;-91
2021/12/01 01:42:07;;;;;;;7.07;1.10;;;;;;;6.22;100.00;100074.84;6157399;23;20044;-87
2021/12/01 01:44:33;;;;;;;7.13;1.58;;;;;;;6.20;100.00;100086.69;6155826;23;20009;-88
2021/12/01 01:47:01;;;;;;;12.52;1.75;;;;;;;6.13;100.00;100089.16;6156628;23;20444;-90
2021/12/01 01:49:48;;;;;;;12.60;1.38;;;;;;;6.10;100.00;100086.81;6182197;23;20005;-91
2021/12/01 01:52:13;;;;;;;8.65;1.02;;;;;;;6.12;100.00;100083.00;6136545;23;20342;-89
2021/12/01 01:54:39;;;;;;;8.20;1.83;;;;;;;6.08;100.00;100086.16;6131453;23;20067;-87
2021/12/01 01:57:07;;;;;;;7.10;1.35;;;;;;;5.98;100.00;100091.66;6131215;23;20013;-88
2021/12/01 01:59:33;;;;;;;9.70;1.27;;;;;;;5.96;100.00;100084.81;6156532;23;20122;-91
2021/12/01 02:02:00;;;;;;;11.75;1.60;;;;;;;5.89;100.00;100087.22;6131713;23;20419;-89
2021/12/01 02:04:27;;;;;;;6.40;2.63;;;;;;;5.87;100.00;100082.03;6131904;23;20013;-89
2021/12/01 02:06:53;;;;;;;12.15;1.60;;;;;;;5.92;100.00;100086.91;6156963;23;20005;-88
2021/12/01 02:09:22;;;;;;;6.35;1.55;;;;;;;5.93;100.00;100086.78;6156673;23;20008;-87
2021/12/01 02:11:49;;;;;;;3.90;1.85;;;;;;;6.01;100.00;100096.66;6107334;23;20035;-90
2021/12/01 02:14:16;;;;;;;14.00;2.10;;;;;;;6.06;100.00;100099.66;6131266;23;20009;-91
2021/12/01 02:16:42;;;;;;;10.18;2.10;;;;;;;6.08;100.00;100103.00;6107377;23;20459;-89
2021/12/01 02:19:07;;;;;;;16.77;2.35;;;;;;;6.08;100.00;100086.16;6131612;23;20033;-87
2021/12/01 02:21:34;;;;;;;18.23;3.08;;;;;;;6.16;100.00;100108.34;6131490;23;20596;-90
2021/12/01 02:24:02;;;;;;;9.55;1.35;;;;;;;6.13;100.00;100113.19;6156979;23;20027;-90
2021/12/01 02:26:31;;;;;;;9.00;2.13;;;;;;;6.15;100.00;100112.03;6107300;23;20001;-88
2021/12/01 02:28:59;;;;;;;9.65;1.80;;;;;;;6.05;100.00;100083.81;6107540;23;20160;-89
2021/12/01 02:31:28;;;;;;;9.93;1.83;;;;;;;6.09;100.00;100109.19;6130171;23;20016;-89
2021/12/01 02:33:55;;;;;;;3.22;1.50;;;;;;;6.08;100.00;100111.00;6130784;23;20095;-88
2021/12/01 02:36:21;;;;;;;12.35;2.00;;;;;;;6.07;100.00;100111.16;6129337;23;20422;-91
2021/12/01 02:38:48;;;;;;;9.10;1.00;;;;;;;6.07;100.00;100112.00;6130757;23;20020;-91
2021/12/01 02:41:14;;;;;;;6.90;1.70;;;;;;;6.16;100.00;100127.03;6155344;23;20012;-90
2021/12/01 02:43:42;;;;;;;8.60;1.65;;;;;;;6.21;100.00;100123.06;6131240;23;20370;-90
2021/12/01 02:46:08;;;;;;;17.63;2.28;;;;;;;6.21;100.00;100125.72;6156061;23;20341;-87
2021/12/01 02:48:41;;;;;;;11.95;1.67;;;;;;;6.19;100.00;100127.72;6131249;23;20009;-88
2021/12/01 02:51:09;;;;;;;13.80;2.30;;;;;;;6.25;100.00;100135.91;6155480;23;20404;-88
2021/12/01 02:53:35;;;;;;;6.70;1.30;;;;;;;6.22;100.00;100116.69;6131770;23;20013;-87
2021/12/01 02:56:03;;;;;;;10.80;2.03;;;;;;;6.25;100.00;100145.78;6130758;23;20367;-88
2021/12/01 02:58:32;;;;;;;14.10;2.00;;;;;;;6.22;100.00;100144.25;6155987;23;20456;-89
2021/12/01 03:01:00;;;;;;;9.73;2.03;;;;;;;6.18;100.00;100134.06;6131643;23;20005;-90
2021/12/01 03:03:26;;;;;;;11.15;1.63;;;;;;;6.22;100.00;100146.06;6131783;23;20599;-87
2021/12/01 03:05:52;;;;;;;3.00;0.85;;;;;;;6.17;100.00;100146.56;6157692;23;20004;-88
2021/12/01 03:08:19;;;;;;;11.15;1.50;;;;;;;6.14;100.00;100145.06;6158250;23;20012;-89
2021/12/01 03:10:48;;;;;;;11.50;1.45;;;;;;;6.11;100.00;100155.22;6109772;23;20013;-89
2021/12/01 03:13:15;;;;;;;8.15;1.60;;;;;;;6.12;100.00;100152.38;6108797;23;20303;-87
2021/12/01 03:15:41;;;;;;;7.25;1.90;;;;;;;6.18;100.00;100163.41;6133473;23;20456;-89
2021/12/01 03:18:07;;;;;;;4.95;1.42;;;;;;;6.09;100.00;100147.38;6157481;23;20009;-86
2021/12/01 03:20:33;;;;;;;9.18;2.10;;;;;;;6.08;100.00;100144.84;6109305;23;20013;-90
2021/12/01 03:22:59;;;;;;;5.85;1.83;;;;;;;6.09;100.00;100144.72;6156388;23;20373;-90
2021/12/01 03:25:27;;;;;;;8.30;1.27;;;;;;;6.27;100.00;100157.09;6157724;23;20013;-91
2021/12/01 03:27:53;;;;;;;4.32;1.17;;;;;;;6.28;100.00;100169.47;6158080;23;20015;-90
2021/12/01 03:30:19;;;;;;;6.80;1.58;;;;;;;6.14;100.00;100155.75;6132834;23;20388;-89
2021/12/01 03:32:44;;;;;;;10.90;3.03;;;;;;;5.99;100.00;100162.69;6158247;23;20009;-88
2021/12/01 03:35:12;;;;;;;10.27;2.40;;;;;;;5.98;100.00;100157.50;6109094;23;20037;-88
2021/12/01 03:37:40;;;;;;;18.63;2.20;;;;;;;6.00;100.00;100156.34;6133139;23;20388;-88
2021/12/01 03:40:07;;;;;;;8.48;1.23;;;;;;;5.91;100.00;100152.78;6133171;23;20005;-88
2021/12/01 03:42:32;;;;;;;9.75;2.17;;;;;;;5.91;100.00;100171.47;6108961;23;20376;-88
2021/12/01 03:44:58;;;;;;;3.75;1.27;;;;;;;5.93;100.00;100172.19;6133023;23;20159;-90
2021/12/01 03:47:25;;;;;;;9.32;2.00;;;;;;;5.85;100.00;100166.78;6182666;23;20201;-87
2021/12/01 03:49:52;;;;;;;9.65;1.20;;;;;;;5.84;100.00;100172.25;6132890;23;20114;-90
2021/12/01 03:52:18;;;;;;;13.50;1.95;;;;;;;5.81;100.00;100153.91;6108648;23;20054;-89
2021/12/01 03:54:44;;;;;;;11.30;2.58;;;;;;;5.81;100.00;100168.06;6157662;23;20075;-89
2021/12/01 03:57:10;;;;;;;11.20;2.28;;;;;;;5.83;100.00;100170.59;6109162;23;20015;-91
2021/12/01 03:59:36;;;;;;;9.95;2.33;;;;;;;5.84;100.00;100164.25;6157909;23;20032;-88
2021/12/01 04:02:02;;;;;;;11.30;1.50;;;;;;;5.90;100.00;100166.28;6105679;23;20009;-89
2021/12/01 04:04:28;;;;;;;17.38;2.20;;;;;;;5.84;100.00;100174.91;6131182;23;20008;-87
2021/12/01 04:06:54;;;;;;;3.72;1.27;;;;;;;5.76;100.00;100170.38;6131818;23;20013;-88
2021/12/01 04:09:20;;;;;;;22.25;2.63;;;;;;;5.78;100.00;100175.56;6157029;23;20114;-89
2021/12/01 04:11:46;;;;;;;12.10;1.73;;;;;;;5.83;100.00;100191.94;6107501;23;20085;-90
2021/12/01 04:14:11;;;;;;;7.28;1.52;;;;;;;5.78;100.00;100181.72;6131711;23;20032;-88
2021/12/01 04:16:37;;;;;;;12.85;1.90;;;;;;;5.89;100.00;100188.63;6157182;23;20005;-92
2021/12/01 04:19:05;;;;;;;15.00;3.28;;;;;;;5.83;100.00;100187.44;6157117;23;20426;-88
2021/12/01 04:21:30;;;;;;;10.82;2.20;;;;;;;5.76;100.00;100169.56;6109160;23;20009;-89
2021/12/01 04:23:56;;;;;;;29.42;1.98;;;;;;;5.73;100.00;100192.03;6157139;23;20413;-87
2021/12/01 04:26:24;;;;;;;5.00;1.50;;;;;;;5.67;100.00;100192.69;6158058;23;20563;-89
2021/12/01 04:28:51;;;;;;;11.95;2.33;;;;;;;5.66;100.00;100201.66;6133379;23;20092;-87
2021/12/01 04:31:17;;;;;;;12.27;2.47;;;;;;;5.58;100.00;100185.63;6108404;23;20400;-90
2021/12/01 04:33:43;;;;;;;9.50;1.55;;;;;;;5.54;100.00;100198.44;6132399;23;20096;-89
2021/12/01 04:36:09;;;;;;;7.05;1.40;;;;;;;5.54;100.00;100187.78;6156890;23;20080;-86
2021/12/01 04:38:35;;;;;;;17.33;1.77;;;;;;;5.55;100.00;100199.25;6108201;23;20013;-87
2021/12/01 04:41:02;;;;;;;23.33;3.80;;;;;;;5.47;100.00;100181.38;6108136;23;20005;-90
2021/12/01 04:43:28;;;;;;;11.38;2.05;;;;;;;5.43;100.00;100180.88;6157677;23;20009;-89
2021/12/01 04:45:59;;;;;;;9.23;2.53;;;;;;;5.55;100.00;100189.44;6157021;23;20027;-90
2021/12/01 04:48:26;;;;;;;6.57;1.08;;;;;;;5.67;100.00;100182.00;6109036;23;20013;-87
2021/12/01 04:50:52;;;;;;;5.93;1.60;;;;;;;5.76;100.00;100181.03;6183377;23;20005;-87
2021/12/01 04:53:17;;;;;;;9.38;1.88;;;;;;;5.83;100.00;100167.94;6131994;23;20083;-88
2021/12/01 04:55:44;;;;;;;7.28;1.48;;;;;;;5.97;100.00;100172.69;6108141;23;20012;-90
2021/12/01 04:58:09;;;;;;;16.70;2.25;;;;;;;5.98;100.00;100145.00;6132489;23;20451;-87
2021/12/01 05:00:36;;;;;;;7.82;2.47;;;;;;;6.14;99.52;100176.25;6132205;23;20013;-86
2021/12/01 05:03:03;;;;;;;21.38;2.00;;;;;;;6.16;97.69;100167.06;6107643;23;20040;-87
2021/12/01 05:05:29;;;;;;;11.18;2.20;;;;;;;6.16;96.86;100174.25;6131123;23;20013;-87
2021/12/01 05:07:55;;;;;;;2.53;1.70;;;;;;;6.10;97.65;100173.06;6156912;23;20016;-86
2021/12/01 05:10:21;;;;;;;19.48;2.55;;;;;;;6.19;96.96;100181.09;6183536;23;20009;-87
2021/12/01 05:12:47;;;;;;;8.63;1.98;;;;;;;6.16;97.74;100182.25;6183835;23;20001;-89
2021/12/01 05:15:15;;;;;;;17.63;2.53;;;;;;;6.18;97.47;100192.78;6155580;23;20341;-88
2021/12/01 05:17:41;;;;;;;20.42;2.60;;;;;;;6.17;97.09;100173.28;6157518;23;20031;-91
2021/12/01 05:20:08;;;;;;;11.73;2.28;;;;;;;6.24;96.95;100194.81;6132284;23;20395;-88
2021/12/01 05:22:34;;;;;;;8.55;1.45;;;;;;;6.27;97.18;100200.69;6132249;23;20009;-88
2021/12/01 05:25:01;;;;;;;12.23;2.60;;;;;;;6.39;95.99;100187.84;6157077;23;20068;-86
2021/12/01 05:27:26;;;;;;;10.73;2.38;;;;;;;6.41;95.47;100209.88;6131332;23;20004;-91
2021/12/01 05:29:52;;;;;;;8.30;2.03;;;;;;;6.35;94.73;100207.84;6131992;23;20086;-86
2021/12/01 05:32:18;;;;;;;9.73;1.58;;;;;;;6.29;95.09;100197.81;6131737;23;20389;-89
2021/12/01 05:34:44;;;;;;;8.10;1.38;;;;;;;6.18;95.40;100200.78;6156964;23;20005;-90
2021/12/01 05:37:10;;;;;;;9.55;2.03;;;;;;;6.08;95.88;100206.25;6156730;23;20039;-89
2021/12/01 05:39:39;;;;;;;2.45;0.73;;;;;;;5.91;97.40;100194.66;6182994;23;20023;-88
2021/12/01 05:42:06;;;;;;;5.70;1.17;;;;;;;5.94;98.12;100194.34;6132790;23;20048;-90
2021/12/01 05:44:32;;;;;;;11.80;2.10;;;;;;;5.93;99.10;100198.00;6156585;23;20009;-87
2021/12/01 05:46:58;;;;;;;7.40;1.42;;;;;;;5.91;99.24;100197.31;6156881;23;20016;-90
2021/12/01 05:49:28;;;;;;;7.22;1.30;;;;;;;5.90;99.12;100203.63;6131706;23;20484;-87
2021/12/01 05:51:53;;;;;;;13.40;1.90;;;;;;;5.91;99.14;100210.66;6131489;23;20019;-87
2021/12/01 05:54:21;;;;;;;14.65;1.95;;;;;;;5.90;98.80;100200.97;6132329;23;20511;-88
2021/12/01 05:56:47;;;;;;;5.90;2.65;;;;;;;5.90;98.90;100209.81;6132307;23;20005;-86
2021/12/01 05:59:18;;;;;;;5.18;1.27;;;;;;;5.89;98.10;100213.47;6156261;23;20005;-89
2021/12/01 06:01:44;;;;;;;15.57;1.58;;;;;;;5.92;98.23;100215.81;6133269;23;20012;-91
2021/12/01 06:04:10;;;;;;;10.65;2.20;;;;;;;5.91;98.37;100214.16;6131772;23;20461;-88
2021/12/01 06:06:38;;;;;;;8.02;1.17;;;;;;;5.87;98.17;100215.44;6132126;23;20367;-88
2021/12/01 06:09:05;;;;;;;12.30;1.90;;;;;;;5.90;98.65;100207.16;6156851;23;20005;-88
2021/12/01 06:11:36;;;;;;;9.50;2.00;;;;;;;5.97;98.11;100209.22;6107084;23;20493;-89
2021/12/01 06:14:02;;;;;;;10.20;1.98;;;;;;;5.90;97.72;100203.63;6132226;23;20020;-88
2021/12/01 06:16:31;;;;;;;12.73;1.85;;;;;;;5.97;98.35;100206.53;6107094;23;20130;-89
2021/12/01 06:18:57;;;;;;;8.10;1.92;;;;;;;5.95;98.38;100206.69;6156240;23;20413;-87
2021/12/01 06:21:22;;;;;;;7.30;1.55;;;;;;;5.93;98.23;100192.66;6156163;23;20092;-88
2021/12/01 06:23:48;;;;;;;4.63;1.13;;;;;;;5.98;97.71;100206.41;6107050;23;20324;-88
2021/12/01 06:26:14;;;;;;;8.02;1.88;;;;;;;5.94;98.21;100200.50;6156493;23;19997;-88
2021/12/01 06:28:40;;;;;;;12.05;1.80;;;;;;;5.88;98.08;100186.97;6131487;23;20009;-89
2021/12/01 06:31:06;;;;;;;9.40;1.40;;;;;;;5.80;98.47;100186.94;6156451;23;20012;-87
2021/12/01 06:33:32;;;;;;;5.10;1.95;;;;;;;5.82;98.63;100212.44;6106721;23;20353;-91
2021/12/01 06:35:58;;;;;;;9.40;2.03;;;;;;;5.82;98.27;100211.59;6156982;23;20005;-88
2021/12/01 06:38:25;;;;;;;9.63;1.80;;;;;;;5.82;98.20;100201.78;6157080;23;20013;-88
2021/12/01 06:40:50;;;;;;;5.05;1.77;;;;;;;5.93;98.54;100209.53;6156506;23;20009;-87
2021/12/01 06:43:16;;;;;;;9.07;1.52;;;;;;;6.02;97.75;100210.41;6132118;23;20421;-87
2021/12/01 06:45:42;;;;;;;7.35;2.22;;;;;;;6.13;97.75;100219.94;6107436;23;20009;-88
2021/12/01 06:48:08;;;;;;;14.85;2.20;;;;;;;6.21;97.41;100221.81;6157027;23;20355;-87
2021/12/01 06:50:37;;;;;;;11.40;1.88;;;;;;;6.15;97.75;100209.97;6109373;23;20005;-88
2021/12/01 06:53:04;;;;;;;18.33;1.30;;;;;;;6.08;98.66;100206.25;6132482;23;20027;-89
2021/12/01 06:55:30;;;;;;;7.35;1.52;;;;;;;5.99;100.00;100217.91;6131645;23;20020;-89
2021/12/01 06:57:55;;;;;;;14.00;2.03;;;;;;;5.93;100.00;100208.66;6107916;23;20020;-89
2021/12/01 07:00:21;;;;;;;13.88;2.17;;;;;;;5.90;100.00;100216.97;6131887;23;20424;-87
2021/12/01 07:02:48;;;;;;;8.55;2.15;;;;;;;5.88;100.00;100222.47;6132358;23;20088;-88
2021/12/01 07:05:13;;;;;;;1.58;0.95;;;;;;;5.74;100.00;100212.38;6132445;23;20031;-88
2021/12/01 07:07:39;;;;;;;9.10;1.50;;;;;;;5.73;100.00;100221.38;6131704;23;20417;-88
2021/12/01 07:10:07;;;;;;;10.05;2.10;;;;;;;5.64;100.00;100214.34;6131135;23;20213;-89
2021/12/01 07:12:33;;;;;;;18.50;2.35;;;;;;;5.57;100.00;100234.63;6155354;23;20009;-89
2021/12/01 07:14:58;;;;;;;8.43;1.45;;;;;;;5.44;100.00;100224.34;6155820;23;20299;-86
2021/12/01 07:17:24;;;;;;;11.77;1.40;;;;;;;5.41;100.00;100225.50;6156047;23;20478;-88
2021/12/01 07:19:50;;;;;;;4.30;0.95;;;;;;;5.42;100.00;100232.50;6155659;23;20068;-87
2021/12/01 07:22:16;;;;;;;7.25;1.70;;;;;;;5.37;100.00;100234.81;6130617;23;20024;-88
2021/12/01 07:24:44;;;;;;;13.80;2.50;;;;;;;5.37;100.00;100244.63;6155356;23;20012;-86
2021/12/01 07:27:10;;;;;;;4.45;1.45;;;;;;;5.33;100.00;100254.78;6106930;23;20083;-88
2021/12/01 07:29:36;;;;;;;5.22;0.90;;;;;;;5.28;100.00;100244.56;6131061;23;20418;-86
2021/12/01 07:32:03;;;;;;;10.75;1.40;;;;;;;5.27;100.00;100258.91;6131548;23;20488;-87
2021/12/01 07:34:29;;;;;;;2.78;0.73;;;;;;;5.31;100.00;100255.91;6106852;23;20013;-87
2021/12/01 07:36:54;;;;;;;7.38;1.65;;;;;;;5.21;100.00;100261.31;6131761;23;20505;-87
2021/12/01 07:39:22;;;;;;;7.28;1.27;;;;;;;5.19;100.00;100266.81;6131255;23;20016;-88
2021/12/01 07:41:49;;;;;;;4.85;1.17;;;;;;;5.11;100.00;100266.75;6156250;23;20009;-86
2021/12/01 07:44:15;;;;;;;9.95;1.98;;;;;;;5.05;100.00;100267.34;6156499;23;20028;-87
2021/12/01 07:46:40;;;;;;;2.05;0.85;;;;;;;5.07;100.00;100271.53;6155754;23;20330;-89
2021/12/01 07:49:06;;;;;;;2.80;0.93;;;;;;;5.05;100.00;100267.34;6131510;23;20048;-85
2021/12/01 07:51:32;;;;;;;11.68;1.63;;;;;;;4.97;100.00;100264.59;6130852;23;20417;-86
2021/12/01 07:53:59;;;;;;;2.83;0.82;;;;;;;4.96;100.00;100279.75;6133086;23;20441;-89
2021/12/01 07:56:25;;;;;;;10.48;1.08;;;;;;;4.93;100.00;100268.56;6157553;23;20013;-87
2021/12/01 07:58:53;;;;;;;8.57;1.55;;;;;;;4.88;100.00;100269.03;6156947;23;20424;-87
2021/12/01 08:01:21;;;;;;;9.23;1.85;;;;;;;4.78;100.00;100271.75;6134195;23;20017;-88
2021/12/01 08:03:47;;;;;;;5.57;1.60;;;;;;;4.79;100.00;100281.44;6157691;23;20004;-86
2021/12/01 08:06:13;;;;;;;12.30;2.08;;;;;;;4.80;100.00;100292.91;6107034;23;20005;-87
2021/12/01 08:08:38;;;;;;;6.47;1.35;;;;;;;4.75;100.00;100285.34;6157195;23;20016;-85
2021/12/01 08:11:04;;;;;;;8.57;1.13;;;;;;;4.71;100.00;100284.00;6156909;23;20457;-87
2021/12/01 08:13:30;;;;;;;7.40;1.33;;;;;;;4.67;100.00;100274.63;6156968;23;20016;-88
2021/12/01 08:15:55;;;;;;;17.65;1.65;;;;;;;4.65;100.00;100281.91;6157175;23;20005;-87
2021/12/01 08:18:21;;;;;;;11.80;2.35;;;;;;;4.73;100.00;100292.66;6157055;23;20005;-87
2021/12/01 08:20:47;;;;;;;7.97;1.67;;;;;;;4.81;100.00;100299.91;6133008;23;20016;-89
2021/12/01 08:23:12;;;;;;;4.13;0.93;;;;;;;4.83;100.00;100305.94;6156987;23;20050;-88
2021/12/01 08:25:38;;;;;;;17.15;1.95;;;;;;;4.89;99.87;100307.16;6156015;23;20085;-88
2021/12/01 08:28:04;;;;;;;7.00;1.70;;;;;;;4.94;99.31;100320.84;6156581;23;20009;-88
2021/12/01 08:30:31;;;;;;;7.25;1.58;;;;;;;4.97;98.66;100315.22;6132283;23;20306;-87
2021/12/01 08:32:57;;;;;;;8.60;1.95;;;;;;;5.01;98.29;100311.28;6108509;23;20027;-88
2021/12/01 08:35:24;;;;;;;4.82;1.08;;;;;;;5.07;96.86;100308.84;6107553;23;20493;-87
2021/12/01 08:37:50;;;;;;;10.30;1.90;;;;;;;5.09;95.74;100299.88;6157753;23;20017;-88
2021/12/01 08:40:18;;;;;;;7.70;1.45;;;;;;;5.16;94.35;100314.25;6108066;23;20059;-88
2021/12/01 08:42:45;;;;;;;11.60;1.65;;;;;;;5.14;94.19;100313.59;6157625;23;20322;-88
2021/12/01 08:45:11;;;;;;;9.52;1.90;;;;;;;5.16;93.76;100317.78;6108090;23;20395;-89
2021/12/01 08:47:36;;;;;;;8.13;1.88;;;;;;;5.13;93.17;100310.06;6157129;23;20040;-88
2021/12/01 08:50:07;;;;;;;15.95;2.40;;;;;;;5.10;93.45;100310.38;6157488;23;20009;-88
2021/12/01 08:52:33;;;;;;;14.48;2.45;;;;;;;5.21;93.00;100327.97;6108212;23;20005;-88
2021/12/01 08:54:59;;;;;;;7.28;2.33;;;;;;;5.24;93.21;100339.16;6157547;23;20001;-87
2021/12/01 08:57:25;;;;;;;15.07;2.42;;;;;;;5.39;91.44;100333.31;6157570;23;20274;-85
2021/12/01 08:59:51;;;;;;;7.97;2.13;;;;;;;5.40;90.02;100326.97;6180739;23;20009;-89
2021/12/01 09:02:17;;;;;;;9.38;2.33;;;;;;;5.49;89.27;100339.41;6156451;23;20012;-85
2021/12/01 09:04:44;;;;;;;34.65;2.95;;;;;;;5.57;88.37;100338.63;6107750;23;20002;-88
2021/12/01 09:07:10;;;;;;;11.27;2.53;;;;;;;5.56;87.97;100340.47;6157213;23;20001;-89
2021/12/01 09:09:36;;;;;;;8.43;1.90;;;;;;;5.61;87.58;100347.97;6157037;23;20005;-88
2021/12/01 09:12:02;;;;;;;6.72;1.27;;;;;;;5.70;86.70;100355.06;6130663;23;20040;-87
2021/12/01 09:14:31;;;;;;;7.28;1.98;;;;;;;5.77;86.63;100360.63;6181671;23;20037;-86
2021/12/01 09:17:25;;;;;;;9.93;1.52;;;;;;;5.97;86.22;100364.81;6107910;23;20012;-88
2021/12/01 09:19:52;;;;;;;12.25;2.17;;;;;;;6.02;85.38;100354.53;6107956;23;20005;-89
2021/12/01 09:22:19;;;;;;;7.60;1.52;;;;;;;5.94;85.49;100357.13;6156855;23;20005;-88
2021/12/01 09:24:46;;;;;;;10.35;1.95;;;;;;;6.04;85.57;100370.38;6156565;23;20011;-87
2021/12/01 09:27:13;;;;;;;13.50;2.05;;;;;;;6.06;85.52;100371.91;6108077;23;20437;-87
2021/12/01 09:29:38;;;;;;;14.23;2.50;;;;;;;6.01;85.51;100366.19;6108233;23;20380;-89
2021/12/01 09:32:05;;;;;;;8.82;3.08;;;;;;;5.94;85.55;100363.28;6108298;23;20036;-87
2021/12/01 09:34:31;;;;;;;21.45;3.28;;;;;;;5.83;85.58;100339.50;6108518;23;20020;-88
2021/12/01 09:36:59;;;;;;;12.60;1.83;;;;;;;5.90;84.84;100351.25;6157222;23;20438;-89
2021/12/01 09:39:25;;;;;;;8.30;1.80;;;;;;;5.88;84.83;100355.06;6133088;23;20019;-90
2021/12/01 09:41:55;;;;;;;3.75;1.00;;;;;;;5.89;83.79;100354.06;6132861;23;20029;-89
2021/12/01 09:44:22;;;;;;;6.60;1.58;;;;;;;6.01;83.63;100360.84;6131481;23;20013;-87
2021/12/01 09:46:47;;;;;;;6.55;2.60;;;;;;;6.04;83.49;100368.56;6107873;23;20071;-90
2021/12/01 09:49:15;;;;;;;5.05;1.70;;;;;;;6.08;83.17;100367.22;6157029;23;20017;-86
2021/12/01 09:51:43;;;;;;;8.13;1.60;;;;;;;6.08;83.09;100371.72;6107975;23;20023;-88
2021/12/01 09:54:09;;;;;;;14.38;2.03;;;;;;;6.08;83.11;100374.41;6183120;23;20001;-84
2021/12/01 09:56:35;;;;;;;11.98;1.33;;;;;;;6.16;82.96;100387.81;6156333;23;20012;-85
2021/12/01 09:59:01;;;;;;;10.75;2.60;;;;;;;6.22;82.93;100381.00;6107726;23;20329;-86
2021/12/01 10:01:28;;;;;;;7.75;2.15;;;;;;;6.35;82.24;100394.75;6182988;23;20005;-85
2021/12/01 10:03:53;;;;;;;16.73;2.95;;;;;;;6.49;81.92;100399.53;6107881;23;20590;-87
2021/12/01 10:06:26;;;;;;;26.63;4.07;;;;;;;6.57;81.59;100409.44;6132782;23;20067;-86
2021/12/01 10:08:57;;;;;;;4.88;1.50;;;;;;;6.65;81.78;100414.00;6131976;23;20011;-86
2021/12/01 10:11:25;;;;;;;7.53;1.98;;;;;;;6.63;81.70;100397.28;6107648;23;20028;-85
2021/12/01 10:13:58;;;;;;;11.68;2.78;;;;;;;6.70;80.04;100398.31;6132498;23;20005;-87
2021/12/01 10:16:26;;;;;;;7.38;1.80;;;;;;;6.50;80.96;100398.53;6131930;23;20027;-86
2021/12/01 10:18:56;;;;;;;22.13;1.92;;;;;;;6.33;81.53;100400.28;6107787;23;20055;-84
2021/12/01 10:21:38;;;;;;;8.30;2.40;;;;;;;6.26;81.96;100406.41;6106846;23;20083;-84
2021/12/01 10:24:08;;;;;;;17.38;2.38;;;;;;;6.32;82.08;100403.94;6132051;23;20024;-86
2021/12/01 10:26:45;;;;;;;8.73;2.17;;;;;;;6.43;81.31;100394.84;6108305;23;20088;-85
2021/12/01 10:29:23;;;;;;;12.07;2.50;;;;;;;6.57;81.01;100404.09;6132223;23;20096;-90
2021/12/01 10:31:56;;;;;;;9.38;1.98;;;;;;;6.66;80.91;100404.97;6132433;23;19997;-84
2021/12/01 10:34:33;;;;;;;8.48;1.73;;;;;;;6.64;80.80;100415.81;6131963;23;20090;-85
2021/12/01 10:37:25;;;;;;;13.55;2.70;;;;;;;6.54;80.76;100418.59;6156831;23;20009;-87
2021/12/01 10:40:15;;;;;;;15.45;2.92;;;;;;;6.54;79.62;100439.97;6156548;23;20009;-86
2021/12/01 10:42:58;;;;;;;18.15;2.88;;;;;;;6.80;77.51;100452.47;6132784;23;20001;-88
2021/12/01 10:45:29;;;;;;;8.02;2.25;;;;;;;6.77;77.37;100436.75;6107520;23;20500;-88
2021/12/01 10:47:55;;;;;;;19.05;2.53;;;;;;;6.96;76.83;100427.66;6157179;23;20005;-86
2021/12/01 10:50:23;;;;;;;12.00;2.38;;;;;;;6.83;75.16;100417.44;6157175;23;20009;-87
2021/12/01 10:53:01;;;;;;;9.43;1.92;;;;;;;7.45;72.74;100452.75;6157695;23;20009;-87
2021/12/01 10:55:27;;;;;;;15.75;2.42;;;;;;;7.85;70.71;100437.75;6133223;23;20009;-88
2021/12/01 10:58:03;;;;;;;6.65;2.83;;;;;;;8.09;69.09;100428.06;6156887;23;20012;-87
2021/12/01 11:00:32;;;;;;;5.85;1.77;;;;;;;8.36;68.98;100449.16;6108045;23;20002;-89
2021/12/01 11:03:08;;;;;;;7.28;1.90;;;;;;;8.53;66.69;100422.38;6107542;23;20005;-88
2021/12/01 11:05:42;;;;;;;6.80;1.35;;;;;;;8.32;67.42;100444.28;6132214;23;20009;-85
2021/12/01 11:08:29;;;;;;;6.28;1.27;;;;;;;8.47;67.18;100445.31;6133297;23;20334;-89
2021/12/01 11:11:13;;;;;;;6.85;1.50;;;;;;;8.27;67.47;100452.84;6132751;23;20422;-87
2021/12/01 11:13:43;;;;;;;9.82;1.60;;;;;;;8.20;67.22;100441.09;6107614;23;20016;-87
2021/12/01 11:16:10;;;;;;;4.53;1.33;;;;;;;7.95;68.20;100456.34;6132083;23;20510;-87
2021/12/01 11:18:41;;;;;;;10.40;2.10;;;;;;;7.87;67.95;100453.66;6108059;23;20064;-87
2021/12/01 11:21:11;;;;;;;5.70;1.98;;;;;;;7.75;68.00;100455.81;6107616;23;20338;-88
2021/12/01 11:23:38;;;;;;;5.65;1.95;;;;;;;8.00;68.00;100456.69;6107624;23;20092;-89
2021/12/01 11:26:10;;;;;;;11.45;1.70;;;;;;;8.28;67.28;100453.66;6132364;23;20009;-89
2021/12/01 11:28:40;;;;;;;15.75;1.63;;;;;;;8.47;65.64;100452.53;6110726;23;20337;-89
2021/12/01 11:31:40;;;;;;;13.45;1.90;;;;;;;8.65;65.18;100444.25;6158583;23;20374;-88
2021/12/01 11:34:08;;;;;;;40.65;2.70;;;;;;;9.53;61.76;100452.16;6134100;23;20547;-88